Time;durP1;ratioP1;P1;durP2;ratioP2;P2;SDS_P1;SDS_P2;PMS_P1;PMS_P2;Temp;Humidity;BMP_temperature;BMP_pressure;BME280_temperature;BME280_humidity;BME280_pressure;Samples;Min_cycle;Max_cycle;Signal;HPM_P1;HPM_P2
2021/01/13 00:03:37;;;;;;;7.82;2.72;;;2.20;99.90;;;;;;6759842;77;20254;-74
2021/01/13 00:13:38;;;;;;;10.30;3.03;;;2.20;99.90;;;;;;6739240;88;20637;-74
2021/01/13 00:23:42;;;;;;;9.68;3.22;;;2.40;99.90;;;;;;6748575;88;20196;-74
2021/01/13 00:33:47;;;;;;;10.05;3.55;;;2.40;99.90;;;;;;6749288;87;20636;-74
2021/01/13 00:43:52;;;;;;;12.15;3.65;;;2.40;99.90;;;;;;6749238;87;20298;-73
2021/01/13 00:53:52;;;;;;;13.65;3.80;;;2.50;99.90;;;;;;6745030;88;20193;-74
2021/01/13 01:03:57;;;;;;;15.98;3.62;;;2.40;99.90;;;;;;6746797;88;20593;-74
2021/01/13 01:13:58;;;;;;;13.70;2.75;;;2.40;99.90;;;;;;6748571;88;20759;-74
2021/01/13 01:23:59;;;;;;;9.57;2.75;;;2.40;99.90;;;;;;6750559;88;20231;-74
2021/01/13 01:33:59;;;;;;;8.90;2.80;;;2.40;99.90;;;;;;6743436;88;20199;-73
2021/01/13 01:44:00;;;;;;;12.82;2.47;;;2.40;99.90;;;;;;6747398;88;20348;-73
2021/01/13 01:54:12;;;;;;;8.20;2.53;;;2.40;99.90;;;;;;6742168;88;20196;-74
2021/01/13 02:04:14;;;;;;;14.00;2.85;;;2.30;99.90;;;;;;6756046;87;20733;-74
2021/01/13 02:14:14;;;;;;;13.75;2.25;;;2.30;99.90;;;;;;6747635;88;20222;-74
2021/01/13 02:24:41;;;;;;;10.38;2.70;;;2.20;99.90;;;;;;6745398;88;20194;-74
2021/01/13 02:35:08;;;;;;;14.80;2.90;;;2.20;99.90;;;;;;6738511;88;20189;-74
2021/01/13 02:45:16;;;;;;;8.30;2.27;;;2.10;99.90;;;;;;6741569;88;20177;-74
2021/01/13 02:55:17;;;;;;;6.22;2.20;;;2.20;99.90;;;;;;6743390;88;20240;-74
2021/01/13 03:05:18;;;;;;;9.57;2.28;;;2.30;99.90;;;;;;6746678;88;20230;-73
2021/01/13 03:15:19;;;;;;;14.57;1.73;;;2.30;99.90;;;;;;6746597;88;21102;-73
2021/01/13 03:25:22;;;;;;;11.57;1.90;;;2.40;99.90;;;;;;6743697;88;20191;-73
2021/01/13 03:35:36;;;;;;;13.98;2.45;;;2.40;99.90;;;;;;6746466;88;20242;-73
2021/01/13 03:45:38;;;;;;;5.15;1.77;;;2.40;99.90;;;;;;6740301;88;20177;-74
2021/01/13 03:55:41;;;;;;;7.35;1.85;;;2.40;99.90;;;;;;6746392;88;20944;-74
2021/01/13 04:06:07;;;;;;;5.75;1.80;;;2.30;99.90;;;;;;6752130;88;20337;-74
2021/01/13 04:16:14;;;;;;;8.47;1.97;;;2.30;99.90;;;;;;6747745;88;20184;-74
2021/01/13 04:26:15;;;;;;;;;;;2.30;99.90;;;;;;6753714;88;20211;-74
2021/01/13 04:36:17;;;;;;;7.50;1.90;;;2.40;99.90;;;;;;6746706;88;20118;-74
2021/01/13 04:46:30;;;;;;;6.60;1.85;;;2.30;99.90;;;;;;6743104;88;20214;-74
2021/01/13 04:56:39;;;;;;;10.52;2.50;;;2.40;99.90;;;;;;6739378;88;20209;-75
2021/01/13 05:07:00;;;;;;;9.88;2.15;;;2.40;99.90;;;;;;6751266;87;20208;-74
2021/01/13 05:17:03;;;;;;;8.25;3.20;;;2.50;99.90;;;;;;6742495;88;20184;-73
2021/01/13 05:27:04;;;;;;;6.32;2.47;;;2.60;99.90;;;;;;6744765;88;20223;-74
2021/01/13 05:37:47;;;;;;;6.85;2.40;;;2.70;99.90;;;;;;6759818;88;20202;-77
2021/01/13 05:47:53;;;;;;;10.48;2.92;;;2.70;99.90;;;;;;6752113;88;20208;-74
2021/01/13 05:57:55;;;;;;;10.27;3.90;;;2.80;99.90;;;;;;6750476;88;20215;-75
2021/01/13 06:07:58;;;;;;;13.80;4.18;;;2.60;99.90;;;;;;6754426;77;20247;-76
2021/01/13 06:17:59;;;;;;;12.88;4.00;;;2.60;99.90;;;;;;6755248;87;20205;-74
2021/01/13 06:28:08;;;;;;;11.85;4.80;;;2.60;99.90;;;;;;6769566;87;20555;-75
2021/01/13 06:38:18;;;;;;;14.98;5.47;;;2.60;99.90;;;;;;6757380;87;20640;-76
2021/01/13 06:48:28;;;;;;;11.48;5.03;;;2.60;99.90;;;;;;6763335;87;20320;-75
2021/01/13 06:58:29;;;;;;;12.43;5.25;;;2.70;99.90;;;;;;6757837;87;20191;-77
2021/01/13 07:08:30;;;;;;;14.73;4.97;;;2.70;99.90;;;;;;6757588;87;20934;-76
2021/01/13 07:18:32;;;;;;;12.15;4.87;;;2.60;99.90;;;;;;6759568;88;20699;-75
2021/01/13 07:28:36;;;;;;;9.10;4.28;;;2.60;99.90;;;;;;6763555;88;20708;-75
2021/01/13 07:38:42;;;;;;;12.15;4.20;;;2.50;99.90;;;;;;6759025;88;20655;-76
2021/01/13 07:49:10;;;;;;;13.43;4.20;;;2.50;99.90;;;;;;6767258;87;20231;-75
2021/01/13 07:59:11;;;;;;;9.07;3.58;;;2.40;99.90;;;;;;6755992;87;20336;-75
2021/01/13 08:09:16;;;;;;;8.50;3.08;;;2.60;99.90;;;;;;6773053;87;20767;-75
2021/01/13 08:19:40;;;;;;;11.77;3.33;;;2.60;99.90;;;;;;6762400;87;20209;-76
2021/01/13 08:29:42;;;;;;;11.40;3.28;;;2.80;99.90;;;;;;6755149;88;20200;-76
2021/01/13 08:39:43;;;;;;;13.10;2.90;;;3.00;99.90;;;;;;6758408;87;20263;-77
2021/01/13 08:49:44;;;;;;;7.43;2.40;;;3.10;99.90;;;;;;6759430;88;20294;-75
2021/01/13 08:59:46;;;;;;;8.48;2.60;;;3.10;99.90;;;;;;6759087;88;20221;-75
2021/01/13 09:09:59;;;;;;;9.20;2.53;;;3.30;99.90;;;;;;6764043;87;20316;-76
2021/01/13 09:20:07;;;;;;;13.57;2.50;;;3.90;99.90;;;;;;6775513;87;20705;-76
2021/01/13 09:30:09;;;;;;;12.60;2.20;;;4.40;99.90;;;;;;6755510;88;20218;-75
2021/01/13 09:40:09;;;;;;;9.63;2.12;;;4.40;99.90;;;;;;6759264;88;20731;-77
2021/01/13 09:50:11;;;;;;;6.15;2.35;;;4.60;99.90;;;;;;6758737;87;20200;-76
2021/01/13 10:00:15;;;;;;;6.10;1.87;;;5.20;99.90;;;;;;6758026;88;20168;-76
2021/01/13 10:10:23;;;;;;;8.98;2.00;;;5.90;99.90;;;;;;6763019;87;20979;-76
2021/01/13 10:20:27;;;;;;;5.97;2.65;;;6.10;99.90;;;;;;6778355;87;20194;-77
2021/01/13 10:30:28;;;;;;;9.40;2.78;;;5.80;99.90;;;;;;6778680;87;20194;-77
2021/01/13 10:40:29;;;;;;;10.60;2.25;;;5.90;99.90;;;;;;6773506;87;20301;-76
2021/01/13 10:50:32;;;;;;;3.92;2.08;;;5.40;99.90;;;;;;6776379;87;20307;-77
2021/01/13 11:00:33;;;;;;;5.60;1.70;;;5.40;99.90;;;;;;6777172;87;20209;-76
2021/01/13 11:10:34;;;;;;;6.68;2.20;;;5.30;99.90;;;;;;6759484;88;20636;-77
2021/01/13 11:20:35;;;;;;;4.37;1.60;;;5.40;99.90;;;;;;6759842;88;20265;-77
2021/01/13 11:30:44;;;;;;;3.72;1.15;;;5.40;99.90;;;;;;6777870;87;20188;-77
2021/01/13 11:41:24;;;;;;;5.75;1.37;;;5.40;99.90;;;;;;6779774;87;20301;-78
2021/01/13 11:51:27;;;;;;;6.62;1.37;;;5.40;99.90;;;;;;6769091;87;20183;-78
2021/01/13 12:01:27;;;;;;;6.10;1.60;;;5.70;99.90;;;;;;6764065;87;20180;-76
2021/01/13 12:11:38;;;;;;;7.47;1.27;;;5.80;99.90;;;;;;6760164;87;20685;-77
2021/01/13 12:21:44;;;;;;;5.18;1.05;;;5.50;99.90;;;;;;6765147;87;21003;-76
2021/01/13 12:31:47;;;;;;;7.87;1.50;;;5.50;99.90;;;;;;6765095;87;20681;-77
2021/01/13 12:41:49;;;;;;;3.92;1.30;;;5.80;99.90;;;;;;6771080;87;20193;-77
2021/01/13 12:51:54;;;;;;;2.25;0.90;;;6.30;99.90;;;;;;6769365;87;20200;-77
2021/01/13 13:01:55;;;;;;;5.28;1.40;;;6.50;99.90;;;;;;6775358;87;20222;-79
2021/01/13 13:11:56;;;;;;;3.30;1.00;;;8.30;99.90;;;;;;6773581;87;20234;-77
2021/01/13 13:21:56;;;;;;;6.07;1.33;;;9.40;99.90;;;;;;6780383;87;20217;-77
2021/01/13 13:31:57;;;;;;;4.37;1.15;;;9.60;99.90;;;;;;6775592;87;20196;-76
2021/01/13 13:41:58;;;;;;;5.12;1.15;;;9.30;98.60;;;;;;6777549;87;20243;-77
2021/01/13 13:51:59;;;;;;;4.45;1.12;;;7.40;99.90;;;;;;6775906;87;20273;-78
2021/01/13 14:02:00;;;;;;;6.82;1.12;;;9.30;99.90;;;;;;6771713;87;20184;-78
2021/01/13 14:12:01;;;;;;;5.53;1.42;;;11.20;95.10;;;;;;6769204;87;20188;-77
2021/01/13 14:22:01;;;;;;;6.65;1.20;;;10.30;96.00;;;;;;6772626;87;20219;-77
2021/01/13 14:32:02;;;;;;;4.65;1.30;;;8.80;98.70;;;;;;6770844;87;20283;-77
2021/01/13 14:42:11;;;;;;;5.40;1.50;;;9.70;98.20;;;;;;6769058;87;20295;-76
2021/01/13 14:52:11;;;;;;;4.87;1.35;;;8.00;99.90;;;;;;6766882;87;20179;-76
2021/01/13 15:02:12;;;;;;;4.00;1.30;;;6.40;99.90;;;;;;6757387;87;20188;-76
2021/01/13 15:12:13;;;;;;;5.00;1.33;;;6.00;99.90;;;;;;6762917;87;20318;-76
2021/01/13 15:22:13;;;;;;;6.03;1.65;;;5.40;99.90;;;;;;6760288;87;20231;-76
2021/01/13 15:32:15;;;;;;;6.80;1.75;;;5.00;99.90;;;;;;6765058;87;20199;-78
2021/01/13 15:42:18;;;;;;;5.68;1.60;;;4.80;99.90;;;;;;6764562;87;20196;-76
2021/01/13 15:52:20;;;;;;;8.43;1.92;;;4.80;99.90;;;;;;6763807;87;20754;-75
2021/01/13 16:02:20;;;;;;;4.68;1.75;;;4.60;99.90;;;;;;6763397;87;20199;-77
2021/01/13 16:12:21;;;;;;;6.35;2.22;;;4.50;99.90;;;;;;6764272;87;20247;-78
2021/01/13 16:22:25;;;;;;;6.68;2.00;;;4.40;99.90;;;;;;6756774;87;20239;-77
2021/01/13 16:32:28;;;;;;;7.07;2.30;;;4.20;99.90;;;;;;6759867;87;21168;-76
2021/01/13 16:42:29;;;;;;;5.78;2.30;;;4.10;99.90;;;;;;6768501;87;20717;-77
2021/01/13 16:52:29;;;;;;;8.18;3.10;;;4.00;99.90;;;;;;6770355;87;20204;-77
2021/01/13 17:02:46;;;;;;;8.98;2.85;;;4.00;99.90;;;;;;6767126;87;20515;-77
2021/01/13 17:12:48;;;;;;;6.80;2.57;;;3.80;99.90;;;;;;6769171;87;20187;-78
2021/01/13 17:22:50;;;;;;;11.07;3.67;;;3.70;99.90;;;;;;6763776;87;20227;-77
2021/01/13 17:33:07;;;;;;;10.05;3.22;;;3.90;99.90;;;;;;6765846;87;20246;-77
2021/01/13 17:43:08;;;;;;;9.55;3.20;;;3.70;99.90;;;;;;6775621;87;20614;-77
2021/01/13 17:53:13;;;;;;;8.60;4.45;;;3.70;99.90;;;;;;6762522;87;20212;-76
2021/01/13 18:03:22;;;;;;;10.50;4.12;;;3.60;99.90;;;;;;6764944;87;20223;-76
2021/01/13 18:13:22;;;;;;;13.25;4.60;;;3.60;99.90;;;;;;6759349;88;20188;-77
2021/01/13 18:23:23;;;;;;;9.90;4.12;;;3.60;99.90;;;;;;6761714;88;20742;-76
2021/01/13 18:33:23;;;;;;;11.70;4.75;;;3.50;99.90;;;;;;6762630;88;20200;-76
2021/01/13 18:43:24;;;;;;;10.77;5.00;;;3.50;99.90;;;;;;6766280;88;20326;-78
2021/01/13 18:53:24;;;;;;;13.93;5.90;;;3.60;99.90;;;;;;6769071;87;20216;-76
2021/01/13 19:03:25;;;;;;;14.43;6.43;;;3.40;99.90;;;;;;6759432;87;20657;-76
2021/01/13 19:13:25;;;;;;;16.15;6.95;;;3.40;99.90;;;;;;6761426;87;20700;-76
2021/01/13 19:23:26;;;;;;;21.73;7.37;;;3.40;99.90;;;;;;6760713;87;20713;-76
2021/01/13 19:33:26;;;;;;;19.60;7.53;;;3.40;99.90;;;;;;6763921;87;21039;-77
2021/01/13 19:43:27;;;;;;;19.02;7.00;;;3.40;99.90;;;;;;6765771;87;20175;-78
2021/01/13 19:53:28;;;;;;;11.27;5.50;;;3.50;99.90;;;;;;6762768;87;20313;-76
2021/01/13 20:03:28;;;;;;;14.68;6.15;;;3.60;99.90;;;;;;6760056;87;21058;-77
2021/01/13 20:13:29;;;;;;;14.63;5.75;;;3.70;99.90;;;;;;6754918;87;20214;-77
2021/01/13 20:23:29;;;;;;;16.90;5.60;;;3.70;99.90;;;;;;6758195;87;20526;-77
2021/01/13 20:33:30;;;;;;;12.88;5.18;;;3.70;99.90;;;;;;6762870;87;20192;-77
2021/01/13 20:43:31;;;;;;;17.15;5.95;;;3.70;99.90;;;;;;6767523;87;20280;-78
2021/01/13 20:53:32;;;;;;;16.08;6.65;;;3.60;99.90;;;;;;6763194;87;20296;-77
2021/01/13 21:03:32;;;;;;;15.43;5.43;;;3.60;99.90;;;;;;6765493;87;20238;-77
2021/01/13 21:13:33;;;;;;;13.62;6.12;;;3.60;99.90;;;;;;6766289;87;20196;-77
2021/01/13 21:23:33;;;;;;;18.00;6.30;;;3.60;99.90;;;;;;6759383;87;20600;-77
2021/01/13 21:33:34;;;;;;;14.82;6.15;;;3.70;99.90;;;;;;6769733;87;20953;-76
2021/01/13 21:43:34;;;;;;;16.70;5.30;;;3.70;99.90;;;;;;6764776;87;20211;-77
2021/01/13 21:53:35;;;;;;;16.08;5.80;;;3.80;99.90;;;;;;6777487;87;20211;-78
2021/01/13 22:03:36;;;;;;;13.77;5.53;;;3.80;99.90;;;;;;6763291;87;20243;-77
2021/01/13 22:13:36;;;;;;;14.63;6.18;;;3.80;99.90;;;;;;6766997;88;20245;-79
2021/01/13 22:23:37;;;;;;;13.57;4.95;;;3.90;99.90;;;;;;6756602;88;20199;-77
2021/01/13 22:33:38;;;;;;;14.57;5.25;;;4.00;99.90;;;;;;6761278;88;20191;-76
2021/01/13 22:43:41;;;;;;;9.38;4.70;;;4.00;99.90;;;;;;6764579;87;20298;-77
2021/01/13 22:53:45;;;;;;;12.95;4.68;;;4.10;99.90;;;;;;6765872;87;20245;-77
2021/01/13 23:03:47;;;;;;;12.73;4.40;;;4.10;99.90;;;;;;6768289;87;20286;-77
2021/01/13 23:13:47;;;;;;;14.38;4.37;;;4.10;99.90;;;;;;6767732;87;20198;-77
2021/01/13 23:23:48;;;;;;;14.55;4.97;;;4.10;99.90;;;;;;6759747;87;20222;-77
2021/01/13 23:33:48;;;;;;;20.95;5.80;;;4.10;99.90;;;;;;6769070;87;20711;-77
2021/01/13 23:43:49;;;;;;;14.38;7.05;;;4.00;99.90;;;;;;6766392;87;20205;-78
2021/01/13 23:53:49;;;;;;;14.45;7.28;;;4.00;99.90;;;;;;6769459;87;20304;-77
